createdAt,value
2019-03-13T00:01:23.887Z,11.27
2019-03-13T00:03:54.314Z,10.87
2019-03-13T00:06:24.455Z,10.97
2019-03-13T00:08:54.661Z,9.73
2019-03-13T00:11:24.854Z,10.30
2019-03-13T00:13:55.058Z,11.93
2019-03-13T00:16:25.242Z,6.80
2019-03-13T00:18:55.293Z,8.23
2019-03-13T00:21:25.454Z,12.40
2019-03-13T00:23:55.778Z,8.00
2019-03-13T00:26:25.918Z,9.57
2019-03-13T00:28:56.189Z,11.00
2019-03-13T00:31:26.397Z,14.43
2019-03-13T00:33:56.609Z,10.20
2019-03-13T00:36:26.835Z,7.43
2019-03-13T00:38:56.947Z,12.90
2019-03-13T00:41:27.228Z,16.13
2019-03-13T00:43:57.292Z,17.73
2019-03-13T00:46:27.450Z,9.77
2019-03-13T00:48:57.712Z,8.93
2019-03-13T00:51:27.913Z,13.27
2019-03-13T00:53:58.298Z,11.20
2019-03-13T00:56:28.356Z,10.40
2019-03-13T00:58:58.487Z,11.47
2019-03-13T01:01:46.498Z,12.03
2019-03-13T01:04:35.514Z,9.55
2019-03-13T01:07:09.073Z,12.90
2019-03-13T01:09:39.304Z,8.67
2019-03-13T01:12:09.623Z,7.20
2019-03-13T01:14:39.863Z,12.10
2019-03-13T01:17:10.109Z,10.53
2019-03-13T01:19:40.272Z,15.10
2019-03-13T01:22:10.595Z,13.13
2019-03-13T01:24:40.754Z,10.83
2019-03-13T01:27:11.022Z,7.95
2019-03-13T01:29:41.182Z,9.43
2019-03-13T01:32:31.827Z,10.32
2019-03-13T01:35:06.558Z,9.03
2019-03-13T01:37:37.182Z,10.20
2019-03-13T01:40:09.214Z,8.57
2019-03-13T01:42:39.399Z,9.47
2019-03-13T01:45:11.032Z,11.43
2019-03-13T01:47:41.277Z,11.50
2019-03-13T01:50:11.577Z,10.43
2019-03-13T01:52:41.791Z,14.30
2019-03-13T01:55:12.072Z,12.83
2019-03-13T01:57:42.152Z,10.33
2019-03-13T02:00:13.115Z,14.90
2019-03-13T02:02:43.329Z,14.07
2019-03-13T02:05:13.688Z,14.53
2019-03-13T02:07:43.978Z,10.27
2019-03-13T02:10:14.374Z,10.98
2019-03-13T02:12:44.665Z,15.03
2019-03-13T02:15:16.369Z,12.53
2019-03-13T02:17:46.570Z,11.23
2019-03-13T02:20:16.960Z,12.70
2019-03-13T02:22:47.203Z,15.60
2019-03-13T02:25:18.473Z,9.80
2019-03-13T02:27:48.777Z,11.17
2019-03-13T02:30:20.044Z,13.87
2019-03-13T02:32:50.615Z,12.63
2019-03-13T02:35:20.937Z,12.13
2019-03-13T02:37:50.996Z,13.80
2019-03-13T02:40:21.135Z,17.20
2019-03-13T02:42:51.217Z,11.23
2019-03-13T02:45:25.878Z,8.33
2019-03-13T02:47:55.980Z,11.70
2019-03-13T02:50:26.152Z,12.30
2019-03-13T02:52:56.377Z,16.87
2019-03-13T02:55:26.614Z,11.27
2019-03-13T02:57:56.886Z,8.70
2019-03-13T03:00:42.433Z,9.23
2019-03-13T03:03:22.071Z,13.73
2019-03-13T03:05:52.379Z,11.20
2019-03-13T03:08:22.560Z,17.57
2019-03-13T03:10:52.694Z,16.52
2019-03-13T03:13:22.945Z,13.07
2019-03-13T03:15:53.111Z,9.00
2019-03-13T03:18:23.547Z,11.57
2019-03-13T03:20:53.823Z,15.63
2019-03-13T03:23:24.037Z,20.05
2019-03-13T03:25:54.439Z,8.77
2019-03-13T03:28:24.599Z,10.60
2019-03-13T03:30:54.777Z,8.30
2019-03-13T03:33:25.110Z,14.73
2019-03-13T03:35:55.409Z,15.67
2019-03-13T03:38:26.105Z,16.47
2019-03-13T03:40:56.500Z,16.67
2019-03-13T03:43:39.358Z,18.20
2019-03-13T03:45:58.660Z,13.23
2019-03-13T03:48:28.911Z,14.07
2019-03-13T03:50:59.285Z,8.87
2019-03-13T03:53:42.288Z,10.03
2019-03-13T03:56:19.311Z,14.43
2019-03-13T03:58:49.489Z,13.87
2019-03-13T04:01:19.627Z,15.83
2019-03-13T04:03:50.051Z,24.00
2019-03-13T04:06:20.422Z,13.50
2019-03-13T04:08:50.700Z,20.17
2019-03-13T04:11:20.951Z,20.70
2019-03-13T04:13:51.316Z,14.63
2019-03-13T04:16:21.801Z,15.37
2019-03-13T04:18:52.251Z,14.23
2019-03-13T04:21:22.694Z,16.90
2019-03-13T04:23:53.035Z,17.63
2019-03-13T04:26:23.646Z,14.50
2019-03-13T04:28:54.021Z,15.77
2019-03-13T04:31:24.401Z,16.13
2019-03-13T04:33:54.798Z,17.40
2019-03-13T04:36:25.223Z,15.13
2019-03-13T04:38:55.529Z,10.43
2019-03-13T04:41:25.868Z,14.77
2019-03-13T04:43:56.147Z,10.57
2019-03-13T04:46:26.506Z,13.10
2019-03-13T04:48:56.801Z,14.43
2019-03-13T04:51:27.231Z,18.83
2019-03-13T04:53:57.514Z,15.57
2019-03-13T04:56:27.845Z,15.23
2019-03-13T04:58:58.150Z,17.33
2019-03-13T05:01:28.539Z,19.53
2019-03-13T05:03:58.764Z,18.07
2019-03-13T05:06:28.932Z,17.47
2019-03-13T05:09:18.853Z,25.87
2019-03-13T05:11:48.967Z,17.40
2019-03-13T05:14:19.194Z,17.20
2019-03-13T05:16:49.340Z,22.77
2019-03-13T05:19:19.949Z,19.03
2019-03-13T05:21:50.481Z,20.50
2019-03-13T05:24:20.914Z,18.90
2019-03-13T05:26:52.200Z,17.50
2019-03-13T05:29:23.546Z,25.02
2019-03-13T05:31:54.112Z,17.12
2019-03-13T05:34:24.561Z,23.90
2019-03-13T05:36:55.193Z,21.50
2019-03-13T05:39:25.667Z,25.73
2019-03-13T05:41:56.146Z,20.30
2019-03-13T05:44:26.601Z,24.77
2019-03-13T05:46:57.084Z,15.67
2019-03-13T05:49:27.521Z,23.98
2019-03-13T05:51:58.015Z,19.50
2019-03-13T05:54:28.483Z,23.17
2019-03-13T05:56:59.052Z,18.83
2019-03-13T05:59:29.408Z,27.40
2019-03-13T06:01:59.884Z,24.33
2019-03-13T06:04:30.279Z,21.90
2019-03-13T06:07:00.556Z,27.03
2019-03-13T06:09:31.352Z,24.90
2019-03-13T06:12:01.723Z,18.40
2019-03-13T06:14:32.136Z,18.53
2019-03-13T06:17:02.511Z,29.47
2019-03-13T06:19:32.943Z,31.10
2019-03-13T06:22:03.508Z,16.40
2019-03-13T06:24:33.908Z,19.40
2019-03-13T06:27:04.314Z,12.73
2019-03-13T06:29:34.663Z,21.40
2019-03-13T06:32:05.086Z,21.10
2019-03-13T06:34:35.617Z,21.43
2019-03-13T06:37:07.378Z,19.87
2019-03-13T06:39:37.805Z,20.00
2019-03-13T06:42:08.250Z,23.17
2019-03-13T06:44:38.763Z,17.63
2019-03-13T06:47:09.194Z,20.02
2019-03-13T06:49:39.625Z,21.97
2019-03-13T06:52:10.142Z,18.00
2019-03-13T06:57:09.588Z,22.57
2019-03-13T06:59:57.402Z,24.77
2019-03-13T07:02:44.110Z,24.27
2019-03-13T07:05:24.940Z,24.63
2019-03-13T07:08:20.208Z,26.80
2019-03-13T07:10:56.562Z,18.40
2019-03-13T07:13:45.696Z,25.57
2019-03-13T07:16:34.735Z,23.47
2019-03-13T07:19:28.695Z,18.50
2019-03-13T07:22:30.012Z,28.13
2019-03-13T07:25:07.718Z,15.90
2019-03-13T07:27:56.824Z,14.93
2019-03-13T07:30:42.313Z,25.83
2019-03-13T07:33:37.003Z,19.20
2019-03-13T07:36:35.318Z,18.60
2019-03-13T07:39:32.506Z,26.20
2019-03-13T07:42:22.294Z,22.17
2019-03-13T07:45:11.362Z,29.40
2019-03-13T07:47:50.640Z,17.03
2019-03-13T07:50:30.824Z,21.77
2019-03-13T07:53:18.472Z,13.33
2019-03-13T07:56:16.406Z,23.40
2019-03-13T07:59:08.680Z,23.47
2019-03-13T08:01:48.798Z,17.80
2019-03-13T08:04:33.243Z,28.15
2019-03-13T08:07:28.699Z,30.97
2019-03-13T08:10:24.191Z,34.40
2019-03-13T08:13:13.358Z,17.43
2019-03-13T08:15:49.332Z,22.67
2019-03-13T08:18:41.353Z,23.27
2019-03-13T08:21:30.488Z,14.47
2019-03-13T08:24:13.073Z,25.65
2019-03-13T08:26:57.546Z,19.87
2019-03-13T08:29:45.354Z,12.37
2019-03-13T08:32:28.306Z,16.50
2019-03-13T08:35:15.958Z,16.77
2019-03-13T08:38:06.924Z,11.43
2019-03-13T08:41:02.533Z,18.73
2019-03-13T08:43:41.120Z,15.83
2019-03-13T08:46:23.657Z,10.78
2019-03-13T08:49:21.215Z,11.97
2019-03-13T08:52:08.806Z,14.77
2019-03-13T08:54:53.919Z,9.47
2019-03-13T08:57:38.340Z,13.57
2019-03-13T09:00:35.654Z,14.00
2019-03-13T09:03:15.186Z,11.10
2019-03-13T09:06:13.430Z,23.40
2019-03-13T09:09:01.496Z,19.17
2019-03-13T09:12:02.908Z,18.27
2019-03-13T09:14:42.794Z,18.53
2019-03-13T09:17:31.661Z,19.50
2019-03-13T09:20:15.517Z,16.47
2019-03-13T09:22:58.543Z,23.90
2019-03-13T09:25:47.151Z,19.53
2019-03-13T09:28:36.275Z,18.25
2019-03-13T09:31:28.915Z,14.60
2019-03-13T09:34:18.093Z,23.60
2019-03-13T09:37:18.304Z,18.77
2019-03-13T09:39:59.558Z,21.70
2019-03-13T09:42:55.912Z,17.63
2019-03-13T09:45:49.503Z,22.37
2019-03-13T09:48:26.821Z,23.52
2019-03-13T09:51:15.364Z,18.10
2019-03-13T09:53:54.491Z,21.47
2019-03-13T09:56:38.158Z,23.15
2019-03-13T09:59:42.326Z,27.40
2019-03-13T10:02:30.232Z,22.57
2019-03-13T10:05:19.585Z,15.93
2019-03-13T10:07:55.014Z,18.40
2019-03-13T10:10:42.873Z,8.87
2019-03-13T10:13:37.863Z,23.80
2019-03-13T10:16:33.906Z,19.40
2019-03-13T10:19:16.027Z,20.00
2019-03-13T10:22:08.075Z,17.17
2019-03-13T10:24:55.985Z,32.67
2019-03-13T10:27:33.391Z,24.57
2019-03-13T10:30:29.059Z,24.10
2019-03-13T10:33:17.058Z,21.83
2019-03-13T10:36:12.328Z,18.93
2019-03-13T10:38:52.666Z,16.60
2019-03-13T10:41:54.063Z,25.05
2019-03-13T10:44:36.286Z,16.77
2019-03-13T10:47:13.421Z,21.83
2019-03-13T10:49:52.621Z,20.03
2019-03-13T10:52:47.826Z,17.98
2019-03-13T10:55:30.989Z,19.32
2019-03-13T10:58:23.272Z,18.30
2019-03-13T11:01:04.274Z,18.33
2019-03-13T11:03:59.440Z,18.60
2019-03-13T11:06:54.817Z,20.10
2019-03-13T11:09:43.552Z,17.47
2019-03-13T11:12:44.750Z,16.97
2019-03-13T11:15:21.703Z,20.10
2019-03-13T11:18:19.924Z,15.03
2019-03-13T11:21:15.023Z,16.57
2019-03-13T11:23:52.148Z,10.80
2019-03-13T11:26:28.966Z,16.03
2019-03-13T11:29:13.821Z,11.60
2019-03-13T11:32:07.911Z,15.30
2019-03-13T11:34:56.990Z,12.83
2019-03-13T11:37:57.999Z,14.50
2019-03-13T11:40:47.198Z,11.03
2019-03-13T11:43:41.346Z,14.38
2019-03-13T11:46:26.592Z,15.85
2019-03-13T11:49:27.910Z,13.13
2019-03-13T11:52:06.940Z,16.77
2019-03-13T11:54:44.186Z,20.80
2019-03-13T11:57:42.545Z,14.43
2019-03-13T12:00:38.194Z,12.18
2019-03-13T12:03:24.100Z,13.77
2019-03-13T12:06:01.716Z,14.10
2019-03-13T12:08:50.840Z,19.40
2019-03-13T12:11:33.563Z,15.83
2019-03-13T12:14:21.007Z,12.83
2019-03-13T12:17:08.931Z,9.73
2019-03-13T12:19:56.779Z,11.90
2019-03-13T12:22:53.516Z,14.57
2019-03-13T12:25:42.567Z,13.93
2019-03-13T12:28:33.303Z,18.83
2019-03-13T12:31:22.436Z,16.63
2019-03-13T12:34:14.186Z,16.27
2019-03-13T12:36:57.654Z,17.20
2019-03-13T12:39:49.516Z,13.90
2019-03-13T12:42:53.507Z,9.73
2019-03-13T12:45:31.896Z,8.47
2019-03-13T12:48:27.168Z,7.90
2019-03-13T12:51:02.966Z,7.50
2019-03-13T12:53:57.946Z,9.43
2019-03-13T12:56:46.961Z,9.57
2019-03-13T12:59:34.617Z,14.63
2019-03-13T13:02:22.315Z,8.30
2019-03-13T13:05:21.953Z,12.77
2019-03-13T13:08:04.893Z,14.23
2019-03-13T13:10:44.981Z,16.23
2019-03-13T13:13:27.579Z,21.70
2019-03-13T13:16:22.689Z,22.80
2019-03-13T13:18:51.964Z,21.93
2019-03-13T13:21:22.861Z,22.80
2019-03-13T13:23:53.103Z,21.60
2019-03-13T13:26:23.387Z,23.27
2019-03-13T13:28:53.680Z,19.77
2019-03-13T13:31:23.901Z,22.90
2019-03-13T13:33:54.087Z,21.03
2019-03-13T13:36:26.762Z,26.70
2019-03-13T13:38:56.206Z,23.87
2019-03-13T13:41:26.356Z,19.30
2019-03-13T13:43:56.863Z,19.60
2019-03-13T13:46:33.405Z,26.60
2019-03-13T13:49:04.559Z,24.90
2019-03-13T13:51:34.990Z,21.07
2019-03-13T13:54:05.643Z,25.03
2019-03-13T13:56:36.340Z,20.80
2019-03-13T13:59:07.582Z,25.05
2019-03-13T14:01:38.060Z,12.10
2019-03-13T14:04:08.822Z,15.37
2019-03-13T14:06:39.261Z,18.83
2019-03-13T14:09:09.801Z,16.37
2019-03-13T14:11:40.190Z,22.70
2019-03-13T14:14:10.567Z,13.63
2019-03-13T14:16:40.999Z,14.87
2019-03-13T14:19:11.507Z,12.37
2019-03-13T14:21:42.032Z,15.17
2019-03-13T14:26:46.589Z,12.73
2019-03-13T14:29:18.042Z,15.13
2019-03-13T14:31:48.637Z,12.33
2019-03-13T14:34:19.072Z,9.83
2019-03-13T14:36:49.657Z,15.17
2019-03-13T14:39:20.032Z,21.33
2019-03-13T14:41:50.506Z,12.27
2019-03-13T14:44:20.919Z,11.73
2019-03-13T14:46:51.424Z,20.37
2019-03-13T14:49:22.016Z,20.65
2019-03-13T14:51:52.411Z,8.65
2019-03-13T14:54:22.832Z,9.97
2019-03-13T14:56:53.336Z,10.37
2019-03-13T15:01:52.134Z,13.50
2019-03-13T15:04:25.540Z,10.90
2019-03-13T15:06:56.064Z,10.57
2019-03-13T15:09:26.489Z,15.00
2019-03-13T15:11:56.909Z,12.67
2019-03-13T15:14:27.334Z,23.13
2019-03-13T15:16:57.782Z,10.67
2019-03-13T15:19:28.238Z,18.37
2019-03-13T15:21:58.721Z,13.80
2019-03-13T15:24:29.134Z,12.90
2019-03-13T15:26:59.553Z,17.20
2019-03-13T15:29:30.015Z,20.27
2019-03-13T15:32:01.529Z,14.87
2019-03-13T15:34:32.084Z,20.90
2019-03-13T15:37:02.614Z,21.27
2019-03-13T15:39:33.080Z,23.60
2019-03-13T15:42:03.585Z,13.87
2019-03-13T15:44:33.995Z,14.00
2019-03-13T15:47:04.457Z,17.90
2019-03-13T15:49:34.923Z,9.60
2019-03-13T15:52:05.404Z,8.23
2019-03-13T15:54:35.960Z,10.20
2019-03-13T15:57:07.183Z,8.23
2019-03-13T15:59:37.649Z,9.73
2019-03-13T16:02:08.107Z,12.17
2019-03-13T16:04:38.573Z,12.10
2019-03-13T16:07:09.168Z,16.17
2019-03-13T16:09:39.727Z,12.73
2019-03-13T16:12:10.222Z,18.63
2019-03-13T16:14:40.628Z,19.77
2019-03-13T16:17:11.275Z,18.70
2019-03-13T16:19:41.784Z,15.47
2019-03-13T16:22:13.811Z,18.05
2019-03-13T16:24:44.301Z,12.43
2019-03-13T16:27:14.743Z,23.27
2019-03-13T16:29:45.255Z,17.83
2019-03-13T16:32:17.623Z,24.37
2019-03-13T16:34:48.182Z,28.17
2019-03-13T16:37:18.621Z,24.73
2019-03-13T16:39:49.109Z,23.53
2019-03-13T16:42:19.515Z,25.63
2019-03-13T16:44:49.937Z,29.97
2019-03-13T16:47:20.485Z,23.43
2019-03-13T16:49:50.901Z,25.30
2019-03-13T16:52:21.210Z,30.43
2019-03-13T16:54:53.023Z,25.97
2019-03-13T16:57:23.254Z,26.40
2019-03-13T17:00:00.617Z,21.90
2019-03-13T17:02:25.461Z,24.77
2019-03-13T17:04:55.667Z,21.10
2019-03-13T17:07:25.898Z,26.25
2019-03-13T17:09:56.019Z,18.50
2019-03-13T17:12:26.157Z,19.97
2019-03-13T17:14:56.359Z,23.20
2019-03-13T17:17:26.558Z,22.77
2019-03-13T17:19:56.741Z,24.95
2019-03-13T17:22:26.926Z,35.27
2019-03-13T17:24:57.066Z,19.20
2019-03-13T17:27:27.108Z,31.27
2019-03-13T17:29:57.511Z,27.80
2019-03-13T17:32:27.649Z,19.70
2019-03-13T17:34:57.789Z,28.53
2019-03-13T17:37:27.910Z,19.87
2019-03-13T17:39:58.037Z,25.13
2019-03-13T17:42:28.223Z,39.37
2019-03-13T17:44:58.425Z,23.50
2019-03-13T17:47:29.157Z,33.43
2019-03-13T17:49:59.350Z,29.67
2019-03-13T17:52:29.555Z,23.03
2019-03-13T17:54:59.753Z,23.77
2019-03-13T17:57:30.190Z,29.57
2019-03-13T18:00:00.593Z,33.40
2019-03-13T18:02:35.888Z,34.07
2019-03-13T18:05:07.478Z,29.90
2019-03-13T18:07:37.548Z,25.23
2019-03-13T18:10:10.734Z,29.57
2019-03-13T18:12:40.838Z,27.17
2019-03-13T18:15:11.903Z,27.13
2019-03-13T18:17:42.490Z,27.63
2019-03-13T18:20:15.488Z,29.90
2019-03-13T18:22:45.987Z,46.30
2019-03-13T18:25:18.269Z,34.15
2019-03-13T18:27:49.249Z,23.50
2019-03-13T18:30:22.609Z,22.23
2019-03-13T18:32:53.094Z,28.23
2019-03-13T18:35:23.933Z,28.27
2019-03-13T18:37:54.574Z,28.93
2019-03-13T18:40:25.253Z,34.60
2019-03-13T18:42:58.539Z,29.17
2019-03-13T18:45:29.065Z,42.70
2019-03-13T18:47:59.711Z,31.17
2019-03-13T18:50:30.359Z,28.67
2019-03-13T18:53:01.010Z,40.47
2019-03-13T18:55:31.442Z,54.10
2019-03-13T18:58:02.019Z,35.77
2019-03-13T19:00:33.397Z,37.33
2019-03-13T19:03:03.831Z,30.73
2019-03-13T19:05:34.802Z,35.20
2019-03-13T19:08:05.510Z,35.80
2019-03-13T19:10:36.127Z,31.13
2019-03-13T19:13:07.413Z,31.93
2019-03-13T19:15:40.202Z,53.07
2019-03-13T19:18:10.011Z,32.13
2019-03-13T19:20:40.586Z,36.57
2019-03-13T19:23:14.103Z,33.97
2019-03-13T19:25:43.344Z,38.37
2019-03-13T19:28:13.838Z,40.30
2019-03-13T19:30:44.341Z,35.50
2019-03-13T19:33:14.830Z,37.10
2019-03-13T19:35:45.452Z,37.77
2019-03-13T19:38:15.994Z,34.40
2019-03-13T19:40:46.520Z,39.43
2019-03-13T19:45:48.318Z,43.37
2019-03-13T19:48:18.740Z,42.77
2019-03-13T19:50:49.173Z,34.77
2019-03-13T19:53:19.598Z,32.53
2019-03-13T19:55:50.137Z,30.57
2019-03-13T19:58:20.654Z,31.23
2019-03-13T20:00:51.065Z,29.90
2019-03-13T20:03:22.084Z,29.90
2019-03-13T20:05:53.390Z,26.60
2019-03-13T20:08:25.493Z,28.67
2019-03-13T20:10:58.061Z,26.37
2019-03-13T20:13:28.393Z,19.97
2019-03-13T20:15:58.969Z,22.60
2019-03-13T20:18:29.386Z,26.07
2019-03-13T20:21:02.181Z,23.30
2019-03-13T20:23:33.724Z,27.00
2019-03-13T20:26:16.945Z,29.47
2019-03-13T20:28:58.534Z,28.27
2019-03-13T20:31:44.360Z,29.83
2019-03-13T20:34:27.298Z,38.53
2019-03-13T20:37:01.438Z,33.00
2019-03-13T20:39:32.357Z,24.60
2019-03-13T20:42:03.330Z,25.73
2019-03-13T20:44:34.752Z,27.07
2019-03-13T20:47:07.480Z,28.10
2019-03-13T20:49:40.623Z,20.97
2019-03-13T20:52:11.989Z,24.80
2019-03-13T20:54:42.425Z,17.83
2019-03-13T20:57:12.966Z,18.12
2019-03-13T20:59:43.395Z,19.30
2019-03-13T21:02:14.612Z,17.23
2019-03-13T21:04:45.382Z,21.55
2019-03-13T21:07:15.892Z,26.95
2019-03-13T21:09:46.672Z,23.13
2019-03-13T21:12:17.583Z,26.27
2019-03-13T21:14:48.201Z,30.07
2019-03-13T21:17:18.660Z,31.15
2019-03-13T21:19:49.258Z,34.67
2019-03-13T21:22:21.821Z,37.17
2019-03-13T21:24:52.258Z,29.23
2019-03-13T21:27:25.283Z,32.53
2019-03-13T21:29:58.067Z,36.87
2019-03-13T21:35:09.926Z,31.77
2019-03-13T21:37:43.086Z,30.30
2019-03-13T21:40:16.817Z,42.10
2019-03-13T21:42:54.431Z,33.67
2019-03-13T21:45:40.490Z,27.53
2019-03-13T21:48:08.226Z,36.50
2019-03-13T21:53:21.997Z,22.57
2019-03-13T21:55:56.125Z,29.93
2019-03-13T21:58:31.922Z,36.80
2019-03-13T22:01:19.305Z,41.07
2019-03-13T22:03:56.532Z,40.30
2019-03-13T22:06:36.657Z,31.23
2019-03-13T22:09:11.817Z,32.90
2019-03-13T22:11:51.632Z,35.65
2019-03-13T22:14:26.508Z,40.98
2019-03-13T22:17:01.742Z,34.00
2019-03-13T22:19:39.473Z,40.27
2019-03-13T22:22:24.159Z,34.73
2019-03-13T22:24:59.293Z,36.67
2019-03-13T22:27:37.084Z,42.87
2019-03-13T22:30:15.057Z,32.20
2019-03-13T22:32:53.684Z,39.30
2019-03-13T22:35:30.609Z,34.50
2019-03-13T22:38:07.753Z,36.33
2019-03-13T22:43:06.280Z,39.00
2019-03-13T22:45:39.097Z,35.17
2019-03-13T22:48:12.281Z,32.27
2019-03-13T22:53:23.148Z,29.27
2019-03-13T22:55:53.292Z,43.90
2019-03-13T22:58:26.527Z,39.70
2019-03-13T23:01:15.762Z,36.13
2019-03-13T23:03:47.832Z,20.00
2019-03-13T23:06:20.980Z,40.87
2019-03-13T23:08:53.887Z,37.77
2019-03-13T23:11:26.830Z,32.73
2019-03-13T23:13:59.616Z,34.37
2019-03-13T23:16:34.156Z,39.23
2019-03-13T23:19:07.300Z,35.67
2019-03-13T23:21:40.087Z,26.47
2019-03-13T23:24:13.033Z,32.80
2019-03-13T23:26:46.072Z,27.70
2019-03-13T23:29:18.957Z,30.72
2019-03-13T23:31:51.618Z,34.47
2019-03-13T23:34:24.628Z,40.60
2019-03-13T23:36:54.823Z,31.03
2019-03-13T23:39:24.959Z,26.60
2019-03-13T23:41:55.386Z,28.60
2019-03-13T23:44:25.496Z,30.68
2019-03-13T23:46:55.765Z,28.93
2019-03-13T23:49:25.778Z,25.83
2019-03-13T23:51:55.829Z,31.90
2019-03-13T23:54:25.904Z,29.47
2019-03-13T23:56:55.944Z,33.27
2019-03-13T23:59:26.004Z,30.53
